Time;durP1;ratioP1;P1;durP2;ratioP2;P2;SDS_P1;SDS_P2;PMS_P1;PMS_P2;Temp;Humidity;BMP_temperature;BMP_pressure;BME280_temperature;BME280_humidity;BME280_pressure;Samples;Min_cycle;Max_cycle;Signal;HPM_P1;HPM_P2
2023/08/09 00:00:40;;;;;;;3.28;1.90;;;;;;;21.95;58.43;100361.59;4878782;29;20053;-68
2023/08/09 00:03:09;;;;;;;3.45;1.85;;;;;;;21.91;58.36;100369.22;4879203;29;20128;-68
2023/08/09 00:05:38;;;;;;;3.85;1.90;;;;;;;21.92;58.12;100375.50;4877695;29;20103;-69
2023/08/09 00:08:06;;;;;;;3.15;1.60;;;;;;;21.91;58.31;100368.38;4878647;29;20069;-69
2023/08/09 00:10:34;;;;;;;3.97;1.67;;;;;;;21.91;58.29;100368.38;4878330;29;20414;-69
2023/08/09 00:13:03;;;;;;;4.40;1.70;;;;;;;21.89;58.47;100373.94;4878344;29;20139;-68
2023/08/09 00:15:32;;;;;;;3.45;1.60;;;;;;;21.88;58.28;100365.97;4878696;29;20064;-69
2023/08/09 00:18:02;;;;;;;3.10;1.70;;;;;;;21.88;58.00;100369.53;4878546;29;20086;-69
2023/08/09 00:20:32;;;;;;;4.43;1.90;;;;;;;21.88;58.34;100374.13;4878360;29;20504;-67
2023/08/09 00:23:01;;;;;;;3.00;1.70;;;;;;;21.86;58.44;100376.16;4878250;29;20049;-68
2023/08/09 00:25:29;;;;;;;2.97;1.60;;;;;;;21.85;58.44;100374.44;4878427;29;20080;-68
2023/08/09 00:27:58;;;;;;;3.53;1.90;;;;;;;21.85;58.38;100369.88;4878509;29;20061;-69
2023/08/09 00:30:26;;;;;;;4.28;1.75;;;;;;;21.83;58.60;100371.91;4878078;29;20053;-68
2023/08/09 00:32:54;;;;;;;5.13;2.00;;;;;;;21.83;58.36;100371.06;4878357;29;20060;-68
2023/08/09 00:35:24;;;;;;;3.38;1.70;;;;;;;21.82;58.47;100370.19;4878420;29;20057;-68
2023/08/09 00:37:55;;;;;;;4.85;1.85;;;;;;;21.80;58.48;100376.78;4878245;29;20419;-69
2023/08/09 00:40:24;;;;;;;3.47;1.67;;;;;;;21.81;58.04;100373.94;4877413;29;20045;-69
2023/08/09 00:42:53;;;;;;;4.38;1.75;;;;;;;21.79;58.21;100364.22;4881541;29;20049;-68
2023/08/09 00:45:21;;;;;;;2.90;1.80;;;;;;;21.78;58.30;100371.53;4882110;29;20482;-69
2023/08/09 00:47:50;;;;;;;4.60;1.65;;;;;;;21.78;58.34;100363.38;4882261;29;20048;-70
2023/08/09 00:50:19;;;;;;;3.63;1.75;;;;;;;21.76;58.35;100359.13;4879591;29;20057;-69
2023/08/09 00:52:49;;;;;;;3.58;1.95;;;;;;;21.76;58.39;100370.84;4877859;29;20049;-68
2023/08/09 00:55:20;;;;;;;4.20;1.98;;;;;;;21.76;58.49;100361.84;4878228;29;20052;-68
2023/08/09 00:57:50;;;;;;;4.82;2.22;;;;;;;21.73;58.72;100360.31;4877855;29;20143;-69
2023/08/09 01:00:18;;;;;;;5.15;1.90;;;;;;;21.74;58.50;100361.16;4877716;29;20088;-69
2023/08/09 01:02:46;;;;;;;3.13;1.52;;;;;;;21.73;58.30;100362.19;4877705;29;20164;-69
2023/08/09 01:05:15;;;;;;;3.25;1.88;;;;;;;21.72;58.70;100364.03;4877787;29;20060;-68
2023/08/09 01:07:54;;;;;;;3.08;1.77;;;;;;;21.72;58.59;100361.34;4877978;29;20048;-68
2023/08/09 01:10:30;;;;;;;4.05;2.00;;;;;;;21.70;58.67;100371.47;4877235;29;20551;-68
2023/08/09 01:13:03;;;;;;;4.15;1.80;;;;;;;21.69;58.27;100359.75;4877524;29;20064;-68
2023/08/09 01:15:33;;;;;;;4.15;1.80;;;;;;;21.68;58.00;100366.22;4877197;29;20160;-68
2023/08/09 01:18:04;;;;;;;3.47;1.80;;;;;;;21.69;58.49;100370.63;4877370;29;20049;-68
2023/08/09 01:20:34;;;;;;;3.40;1.75;;;;;;;21.67;58.28;100378.09;4877415;29;20116;-68
2023/08/09 01:23:06;;;;;;;3.15;1.65;;;;;;;21.66;58.14;100370.94;4877022;29;20049;-68
2023/08/09 01:25:36;;;;;;;3.20;1.90;;;;;;;21.63;58.31;100357.72;4877243;29;20049;-68
2023/08/09 01:28:05;;;;;;;3.00;1.70;;;;;;;21.66;58.12;100370.09;4877200;29;20057;-68
2023/08/09 01:30:34;;;;;;;3.83;1.77;;;;;;;21.65;58.29;100365.69;4877150;29;20264;-68
2023/08/09 01:33:02;;;;;;;3.50;1.70;;;;;;;21.64;58.38;100364.84;4877505;29;20085;-68
2023/08/09 01:35:36;;;;;;;3.05;1.50;;;;;;;21.61;58.56;100354.28;4877244;29;20135;-68
2023/08/09 01:38:09;;;;;;;3.15;1.70;;;;;;;21.63;58.48;100370.44;4877289;29;20068;-69
2023/08/09 01:40:40;;;;;;;3.05;1.50;;;;;;;21.61;58.75;100359.72;4876947;29;20080;-67
2023/08/09 01:43:11;;;;;;;4.07;1.70;;;;;;;21.61;58.66;100357.00;4877002;29;20196;-69
2023/08/09 01:45:40;;;;;;;3.20;1.77;;;;;;;21.59;58.77;100353.59;4876641;29;20456;-68
2023/08/09 01:48:09;;;;;;;4.55;1.80;;;;;;;21.58;58.66;100357.34;4876825;29;20110;-68
2023/08/09 01:50:40;;;;;;;3.58;1.83;;;;;;;21.57;58.52;100350.19;4876422;29;20053;-68
2023/08/09 01:53:08;;;;;;;3.30;1.70;;;;;;;21.57;58.58;100360.22;4876876;29;20057;-69
2023/08/09 01:55:38;;;;;;;3.47;1.65;;;;;;;21.56;58.51;100359.38;4878635;29;20057;-69
2023/08/09 01:58:08;;;;;;;3.33;1.70;;;;;;;21.55;58.74;100354.09;4882704;29;20610;-68
2023/08/09 02:00:36;;;;;;;3.42;1.73;;;;;;;21.55;58.58;100354.94;4877699;29;20471;-68
2023/08/09 02:03:06;;;;;;;3.25;1.77;;;;;;;21.55;58.64;100359.53;4878145;29;20102;-68
2023/08/09 02:05:34;;;;;;;3.60;2.20;;;;;;;21.53;58.62;100348.00;4876800;29;20068;-68
2023/08/09 02:08:04;;;;;;;3.50;1.95;;;;;;;21.53;58.32;100356.13;4876894;29;20049;-69
2023/08/09 02:10:32;;;;;;;2.58;1.48;;;;;;;21.52;58.88;100352.56;4882026;29;20053;-69
2023/08/09 02:13:01;;;;;;;3.00;1.63;;;;;;;21.52;58.66;100351.69;4881959;29;20049;-68
2023/08/09 02:15:30;;;;;;;2.85;1.77;;;;;;;21.50;58.59;100353.72;4877833;29;20059;-68
2023/08/09 02:17:59;;;;;;;2.90;1.80;;;;;;;21.49;58.77;100355.56;4877108;29;20451;-67
2023/08/09 02:20:28;;;;;;;3.13;1.88;;;;;;;21.48;58.58;100358.47;4877327;29;20049;-67
2023/08/09 02:22:58;;;;;;;3.38;1.70;;;;;;;21.47;58.41;100357.59;4876974;29;20053;-69
2023/08/09 02:25:26;;;;;;;3.45;1.70;;;;;;;21.47;58.32;100365.75;4877002;29;20123;-68
2023/08/09 02:27:54;;;;;;;3.10;1.70;;;;;;;21.46;58.45;100364.03;4876818;29;20384;-68
2023/08/09 02:30:23;;;;;;;3.75;1.80;;;;;;;21.46;58.76;100369.47;4876710;29;20076;-68
2023/08/09 02:32:52;;;;;;;3.17;1.77;;;;;;;21.45;58.82;100366.94;4876674;29;20586;-69
2023/08/09 02:35:22;;;;;;;3.15;1.75;;;;;;;21.45;58.66;100375.91;4876555;29;20057;-68
2023/08/09 02:37:50;;;;;;;5.38;2.00;;;;;;;21.43;58.83;100378.78;4876714;29;20069;-68
2023/08/09 02:40:18;;;;;;;2.88;1.65;;;;;;;21.42;58.40;100368.06;4876389;29;20090;-68
2023/08/09 02:42:47;;;;;;;2.80;1.65;;;;;;;21.40;58.77;100376.38;4877045;29;20487;-68
2023/08/09 02:45:15;;;;;;;3.00;1.70;;;;;;;21.40;58.92;100376.38;4876821;29;20057;-68
2023/08/09 02:47:43;;;;;;;3.28;1.90;;;;;;;21.41;58.86;100382.66;4876675;29;20053;-68
2023/08/09 02:50:13;;;;;;;3.92;1.80;;;;;;;21.40;59.00;100380.94;4876811;29;20057;-68
2023/08/09 02:52:41;;;;;;;2.47;1.58;;;;;;;21.39;59.03;100385.53;4876326;29;20495;-67
2023/08/09 02:55:13;;;;;;;3.42;1.73;;;;;;;21.38;58.92;100385.69;4876313;29;20406;-68
2023/08/09 02:57:41;;;;;;;3.80;1.70;;;;;;;21.37;58.47;100382.13;4876434;29;20145;-68
2023/08/09 03:00:10;;;;;;;2.97;1.75;;;;;;;21.36;58.91;100379.59;4876567;29;20057;-68
2023/08/09 03:02:39;;;;;;;3.40;1.80;;;;;;;21.36;59.01;100388.56;4876837;29;20049;-69
2023/08/09 03:05:09;;;;;;;3.08;1.67;;;;;;;21.34;58.68;100384.31;4879858;29;20140;-68
2023/08/09 03:07:41;;;;;;;3.10;1.80;;;;;;;21.35;58.82;100383.31;4879477;29;20080;-68
2023/08/09 03:10:10;;;;;;;3.85;1.75;;;;;;;21.34;58.79;100387.03;4879648;29;20049;-69
2023/08/09 03:12:39;;;;;;;3.75;1.80;;;;;;;21.33;58.99;100391.63;4879362;29;20061;-69
2023/08/09 03:15:10;;;;;;;3.42;1.80;;;;;;;21.32;59.13;100386.31;4879756;29;20049;-69
2023/08/09 03:17:39;;;;;;;3.17;1.90;;;;;;;21.31;59.03;100390.88;4879638;29;20068;-67
2023/08/09 03:20:12;;;;;;;3.50;1.63;;;;;;;21.30;58.67;100393.78;4879601;29;20121;-68
2023/08/09 03:22:43;;;;;;;3.30;1.70;;;;;;;21.31;58.83;100400.88;4879347;29;20061;-69
2023/08/09 03:25:12;;;;;;;3.20;1.90;;;;;;;21.30;58.96;100394.63;4879517;29;20483;-69
2023/08/09 03:27:41;;;;;;;3.22;1.70;;;;;;;21.30;58.83;100396.47;4879662;29;20041;-69
2023/08/09 03:30:10;;;;;;;3.15;1.80;;;;;;;21.29;58.92;100397.50;4879423;29;20052;-68
2023/08/09 03:32:39;;;;;;;2.80;1.70;;;;;;;21.28;58.83;100401.22;4879082;29;20127;-69
2023/08/09 03:35:09;;;;;;;3.17;1.80;;;;;;;21.27;58.95;100397.66;4879292;29;20436;-69
2023/08/09 03:37:38;;;;;;;3.90;1.83;;;;;;;21.26;58.84;100392.38;4879326;29;20049;-69
2023/08/09 03:40:12;;;;;;;3.78;1.70;;;;;;;21.28;58.82;100403.94;4878939;29;20049;-69
2023/08/09 03:42:41;;;;;;;3.55;1.65;;;;;;;21.25;58.85;100398.81;4879362;29;20132;-69
2023/08/09 03:45:10;;;;;;;2.97;1.80;;;;;;;21.25;58.68;100404.22;4878912;29;20085;-69
2023/08/09 03:47:39;;;;;;;2.97;1.60;;;;;;;21.24;58.71;100407.94;4879326;29;20109;-69
2023/08/09 03:50:08;;;;;;;4.00;1.92;;;;;;;21.23;59.12;100400.78;4878963;29;20071;-69
2023/08/09 03:52:37;;;;;;;3.42;1.63;;;;;;;21.23;59.21;100395.38;4879205;29;21236;-68
2023/08/09 03:55:09;;;;;;;3.20;1.60;;;;;;;21.23;59.07;100401.69;4878718;29;20415;-69
2023/08/09 03:57:38;;;;;;;2.97;1.73;;;;;;;21.22;59.12;100399.94;4878961;29;20049;-69
2023/08/09 04:00:09;;;;;;;3.42;2.00;;;;;;;21.22;58.88;100386.38;4878726;29;20457;-70
2023/08/09 04:02:37;;;;;;;3.65;1.80;;;;;;;21.22;58.88;100393.66;4878865;29;20101;-69
2023/08/09 04:05:05;;;;;;;4.10;2.10;;;;;;;21.21;58.85;100397.38;4878456;29;20049;-68
2023/08/09 04:07:33;;;;;;;4.03;1.90;;;;;;;21.20;58.87;100403.81;4878597;29;20090;-68
2023/08/09 04:10:02;;;;;;;3.85;1.80;;;;;;;21.21;58.83;100408.25;4878537;29;20674;-68
2023/08/09 04:12:33;;;;;;;4.20;1.70;;;;;;;21.19;59.09;100405.69;4878510;29;20053;-69
2023/08/09 04:15:01;;;;;;;4.13;1.85;;;;;;;21.20;58.83;100403.81;4878340;29;20045;-68
2023/08/09 04:17:31;;;;;;;3.65;1.63;;;;;;;21.20;59.17;100411.97;4878024;29;20057;-67
2023/08/09 04:19:59;;;;;;;2.70;1.70;;;;;;;21.18;59.04;100414.00;4878224;29;20057;-68
2023/08/09 04:22:29;;;;;;;2.63;1.65;;;;;;;21.18;58.99;100420.25;4876823;29;20152;-68
2023/08/09 04:24:57;;;;;;;2.95;1.40;;;;;;;21.19;59.08;100415.69;4877983;29;20088;-68
2023/08/09 04:27:25;;;;;;;2.78;1.75;;;;;;;21.18;59.13;100411.28;4878063;29;20081;-67
2023/08/09 04:29:55;;;;;;;3.70;1.90;;;;;;;21.19;58.87;100415.69;4877809;29;20045;-68
2023/08/09 04:32:23;;;;;;;4.32;1.90;;;;;;;21.19;59.04;100404.84;4878530;29;20148;-66
2023/08/09 04:34:51;;;;;;;2.85;1.73;;;;;;;21.18;59.17;100408.56;4878163;29;20543;-67
2023/08/09 04:37:20;;;;;;;3.83;1.80;;;;;;;21.19;58.89;100402.13;4878432;29;20055;-67
2023/08/09 04:39:48;;;;;;;3.47;1.88;;;;;;;21.19;58.97;100405.69;4878293;29;20136;-68
2023/08/09 04:42:16;;;;;;;4.47;1.90;;;;;;;21.18;58.91;100403.13;4878161;29;20364;-67
2023/08/09 04:44:45;;;;;;;2.78;1.60;;;;;;;21.16;58.86;100400.59;4878543;29;20049;-67
2023/08/09 04:47:15;;;;;;;2.67;1.63;;;;;;;21.18;59.04;100406.69;4878145;29;20056;-67
2023/08/09 04:49:44;;;;;;;3.30;2.10;;;;;;;21.18;58.97;100408.56;4878276;29;20048;-66
2023/08/09 04:52:13;;;;;;;2.85;1.60;;;;;;;21.18;58.99;100406.69;4877675;29;20148;-67
2023/08/09 04:54:41;;;;;;;3.08;1.80;;;;;;;21.19;58.94;100408.41;4878244;29;20057;-67
2023/08/09 04:57:10;;;;;;;2.97;1.60;;;;;;;21.19;58.98;100415.69;4878526;29;20052;-67
2023/08/09 04:59:38;;;;;;;3.88;1.80;;;;;;;21.20;58.98;100414.69;4878170;29;20080;-67
2023/08/09 05:02:06;;;;;;;2.75;1.65;;;;;;;21.19;59.09;100404.84;4877728;29;20045;-67
2023/08/09 05:04:36;;;;;;;3.75;2.03;;;;;;;21.19;59.01;100410.25;4878214;29;20044;-68
2023/08/09 05:07:06;;;;;;;3.47;1.80;;;;;;;21.19;59.08;100402.13;4878197;29;20049;-67
2023/08/09 05:09:34;;;;;;;3.78;1.98;;;;;;;21.19;58.99;100407.56;4876477;29;20144;-67
2023/08/09 05:12:03;;;;;;;5.30;1.58;;;;;;;21.19;58.96;100421.13;4877638;29;20446;-66
2023/08/09 05:14:31;;;;;;;6.13;2.08;;;;;;;21.19;59.02;100413.81;4878100;29;20053;-67
2023/08/09 05:16:59;;;;;;;3.15;1.80;;;;;;;21.19;59.13;100415.69;4877616;29;20073;-68
2023/08/09 05:19:28;;;;;;;3.67;1.98;;;;;;;21.19;59.05;100410.25;4877727;29;20049;-67
2023/08/09 05:21:58;;;;;;;3.65;2.05;;;;;;;21.19;59.06;100421.13;4877475;29;20137;-67
2023/08/09 05:24:26;;;;;;;2.95;1.70;;;;;;;21.18;58.80;100431.13;4877243;29;20140;-68
2023/08/09 05:26:59;;;;;;;3.35;1.80;;;;;;;21.18;58.90;100419.41;4877202;29;20487;-67
2023/08/09 05:29:29;;;;;;;2.97;1.77;;;;;;;21.19;59.13;100423.81;4877188;29;20451;-68
2023/08/09 05:31:57;;;;;;;3.05;1.70;;;;;;;21.19;59.16;100431.97;4877520;29;20140;-69
2023/08/09 05:34:25;;;;;;;3.40;1.80;;;;;;;21.19;58.70;100429.25;4876470;29;20415;-67
2023/08/09 05:36:54;;;;;;;2.70;1.67;;;;;;;21.20;58.84;100430.94;4877036;29;20494;-67
2023/08/09 05:39:24;;;;;;;2.47;1.55;;;;;;;21.20;58.80;100428.25;4877261;29;20049;-68
2023/08/09 05:41:55;;;;;;;2.58;1.60;;;;;;;21.22;58.93;100426.22;4877205;29;20172;-67
2023/08/09 05:44:23;;;;;;;3.75;1.83;;;;;;;21.20;58.98;100430.94;4877050;29;20140;-67
2023/08/09 05:46:51;;;;;;;3.35;1.80;;;;;;;21.22;58.60;100426.22;4877082;29;20059;-67
2023/08/09 05:49:20;;;;;;;3.20;1.63;;;;;;;21.21;58.89;100419.94;4876915;29;20059;-66
2023/08/09 05:51:49;;;;;;;3.35;1.58;;;;;;;21.21;58.78;100421.81;4876927;29;20511;-68
2023/08/09 05:54:17;;;;;;;3.40;1.85;;;;;;;21.23;58.77;100422.50;4877135;29;20061;-69
2023/08/09 05:56:47;;;;;;;3.55;1.92;;;;;;;21.22;59.00;100427.06;4876939;29;20143;-68
2023/08/09 05:59:15;;;;;;;3.40;1.95;;;;;;;21.24;58.99;100429.66;4876939;29;20057;-67
2023/08/09 06:01:43;;;;;;;4.00;1.60;;;;;;;21.24;59.03;100430.50;4877243;29;20404;-68
2023/08/09 06:04:14;;;;;;;3.92;1.85;;;;;;;21.25;59.25;100425.94;4876903;29;20135;-69
2023/08/09 06:06:42;;;;;;;3.95;2.20;;;;;;;21.26;59.69;100422.19;4877016;29;20057;-68
2023/08/09 06:09:11;;;;;;;5.95;1.90;;;;;;;21.23;60.17;100408.94;4876751;29;20510;-70
2023/08/09 06:11:58;;;;;;;5.05;2.10;;;;;;;21.27;59.75;100416.66;4876927;29;20059;-69
2023/08/09 06:14:26;;;;;;;3.15;1.92;;;;;;;21.29;59.81;100416.47;4876365;29;20072;-69
2023/08/09 06:16:55;;;;;;;4.22;1.80;;;;;;;21.29;59.94;100411.06;4876506;29;20068;-67
2023/08/09 06:19:25;;;;;;;5.95;1.80;;;;;;;21.30;59.96;100418.19;4876392;29;20049;-67
2023/08/09 06:21:53;;;;;;;5.05;2.28;;;;;;;21.29;59.96;100408.34;4876361;29;20091;-68
2023/08/09 06:24:21;;;;;;;3.80;2.05;;;;;;;21.29;59.82;100411.91;4876450;29;20063;-68
2023/08/09 06:26:50;;;;;;;6.82;1.80;;;;;;;21.32;59.95;100418.88;4876664;29;20045;-68
2023/08/09 06:29:23;;;;;;;5.65;1.83;;;;;;;21.33;59.86;100423.31;4876672;29;20053;-69
2023/08/09 06:31:51;;;;;;;4.53;1.92;;;;;;;21.34;59.83;100430.44;4877088;29;20181;-69
2023/08/09 06:34:19;;;;;;;4.03;1.60;;;;;;;21.34;59.67;100425.88;4876737;29;20150;-68
2023/08/09 06:36:48;;;;;;;4.35;1.80;;;;;;;21.34;60.10;100427.72;4877937;29;20061;-69
2023/08/09 06:39:16;;;;;;;5.60;2.00;;;;;;;21.35;59.94;100422.16;4880117;29;20060;-70
2023/08/09 06:41:44;;;;;;;6.93;2.00;;;;;;;21.37;60.22;100422.81;4880263;29;20048;-69
2023/08/09 06:44:13;;;;;;;4.40;1.90;;;;;;;21.38;60.24;100427.25;4879877;29;20087;-71
2023/08/09 06:46:44;;;;;;;4.60;1.88;;;;;;;21.38;60.17;100427.25;4879912;29;20128;-69
2023/08/09 06:49:12;;;;;;;5.28;1.88;;;;;;;21.39;60.00;100422.66;4880387;29;20045;-69
2023/08/09 06:51:41;;;;;;;8.88;1.95;;;;;;;21.39;60.15;100428.09;4879870;29;20423;-70
2023/08/09 06:54:09;;;;;;;3.90;2.00;;;;;;;21.42;60.13;100433.19;4878579;29;20068;-69
2023/08/09 06:56:38;;;;;;;4.47;2.10;;;;;;;21.41;60.32;100426.91;4878586;29;20132;-69
2023/08/09 06:59:06;;;;;;;5.95;2.05;;;;;;;21.43;59.91;100424.94;4878795;29;20049;-69
2023/08/09 07:01:37;;;;;;;5.57;1.98;;;;;;;21.46;60.13;100434.59;4878815;29;20049;-69
2023/08/09 07:04:07;;;;;;;5.90;2.20;;;;;;;21.46;60.19;100434.59;4878633;29;20049;-70
2023/08/09 07:06:36;;;;;;;5.55;1.77;;;;;;;21.47;60.25;100425.44;4879095;29;20427;-69
2023/08/09 07:09:05;;;;;;;5.13;2.05;;;;;;;21.48;60.37;100423.59;4879624;29;20045;-70
2023/08/09 07:11:33;;;;;;;3.42;1.73;;;;;;;21.49;60.21;100418.00;4879880;29;20052;-70
2023/08/09 07:14:02;;;;;;;7.45;2.35;;;;;;;21.49;59.81;100418.00;4878865;29;20061;-70
2023/08/09 07:16:30;;;;;;;4.10;2.08;;;;;;;21.51;60.21;100415.97;4880112;29;20145;-69
2023/08/09 07:18:58;;;;;;;6.13;2.03;;;;;;;21.51;60.07;100418.69;4879573;29;20077;-69
2023/08/09 07:21:28;;;;;;;3.97;2.30;;;;;;;21.51;60.28;100418.69;4879435;29;20073;-69
2023/08/09 07:23:57;;;;;;;6.18;1.95;;;;;;;21.53;60.23;100419.41;4879754;29;20414;-69
2023/08/09 07:26:25;;;;;;;8.35;2.28;;;;;;;21.54;60.37;100412.09;4879313;29;20538;-68
2023/08/09 07:28:54;;;;;;;4.18;1.83;;;;;;;21.55;60.33;100421.94;4879446;29;20093;-69
2023/08/09 07:31:23;;;;;;;4.28;1.95;;;;;;;21.55;60.27;100417.38;4880708;29;20049;-70
2023/08/09 07:33:52;;;;;;;3.63;2.00;;;;;;;21.57;60.22;100417.19;4879584;29;20109;-69
2023/08/09 07:36:20;;;;;;;3.53;1.80;;;;;;;21.57;60.30;100409.91;4879248;29;20108;-70
2023/08/09 07:38:50;;;;;;;6.55;2.10;;;;;;;21.58;60.26;100419.75;4879233;29;20117;-69
2023/08/09 07:41:19;;;;;;;4.20;1.83;;;;;;;21.59;60.24;100418.75;4879486;29;20109;-69
2023/08/09 07:43:49;;;;;;;4.22;1.90;;;;;;;21.58;60.21;100406.19;4879238;29;20066;-69
2023/08/09 07:46:17;;;;;;;5.18;2.00;;;;;;;21.62;60.16;100406.75;4878595;29;20498;-69
2023/08/09 07:48:45;;;;;;;4.53;1.77;;;;;;;21.62;60.17;100404.88;4878095;29;20076;-69
2023/08/09 07:51:13;;;;;;;5.03;2.00;;;;;;;21.62;60.22;100404.88;4878279;29;20136;-69
2023/08/09 07:53:42;;;;;;;4.10;2.00;;;;;;;21.64;60.05;100400.13;4878705;29;20049;-69
2023/08/09 07:56:15;;;;;;;5.90;1.95;;;;;;;21.64;60.05;100411.00;4878996;29;20052;-69
2023/08/09 07:58:43;;;;;;;4.47;1.88;;;;;;;21.66;59.95;100408.09;4878748;29;20063;-69
2023/08/09 08:01:11;;;;;;;3.58;1.80;;;;;;;21.65;60.03;100406.41;4878784;29;20049;-70
2023/08/09 08:03:39;;;;;;;4.35;1.77;;;;;;;21.66;60.00;100414.38;4878800;29;20140;-69
2023/08/09 08:06:08;;;;;;;3.28;1.70;;;;;;;21.67;59.93;100404.38;4878494;29;20060;-69
2023/08/09 08:08:36;;;;;;;3.95;1.85;;;;;;;21.69;60.08;100408.63;4878410;29;20045;-70
2023/08/09 08:11:04;;;;;;;5.32;1.70;;;;;;;21.70;60.14;100407.63;4878181;29;20085;-69
2023/08/09 08:13:34;;;;;;;3.33;1.70;;;;;;;21.71;60.12;100409.34;4878328;29;20089;-69
2023/08/09 08:16:04;;;;;;;3.92;1.92;;;;;;;21.73;60.16;100409.19;4878308;29;20136;-69
2023/08/09 08:18:32;;;;;;;5.10;1.70;;;;;;;21.75;59.80;100409.00;4878409;29;20069;-70
2023/08/09 08:21:01;;;;;;;6.28;1.77;;;;;;;21.74;59.81;100407.31;4878677;29;20475;-70
2023/08/09 08:23:30;;;;;;;5.47;1.92;;;;;;;21.76;60.11;100410.72;4878531;29;20135;-69
2023/08/09 08:25:58;;;;;;;4.32;1.80;;;;;;;21.74;59.93;100410.88;4878585;29;20117;-71
2023/08/09 08:28:30;;;;;;;4.93;2.00;;;;;;;21.77;59.92;100412.41;4878314;29;20240;-70
2023/08/09 08:31:04;;;;;;;4.78;1.88;;;;;;;21.79;60.02;100415.81;4878049;29;20049;-71
2023/08/09 08:33:35;;;;;;;3.42;1.60;;;;;;;21.80;59.79;100414.78;4878505;29;20101;-70
2023/08/09 08:36:04;;;;;;;3.70;1.73;;;;;;;21.81;59.71;100421.94;4878148;29;20125;-70
2023/08/09 08:38:52;;;;;;;4.35;1.80;;;;;;;21.80;59.73;100415.66;4877667;29;20056;-69
2023/08/09 08:41:22;;;;;;;3.53;1.58;;;;;;;21.82;59.87;100418.22;4876808;29;20053;-70
2023/08/09 08:43:52;;;;;;;4.90;1.80;;;;;;;21.83;59.82;100417.22;4878256;29;20065;-69
2023/08/09 08:46:25;;;;;;;3.75;1.70;;;;;;;21.84;59.87;100417.03;4878242;29;20069;-69
2023/08/09 08:48:56;;;;;;;4.25;1.58;;;;;;;21.85;59.87;100412.47;4877947;29;20499;-69
2023/08/09 08:51:27;;;;;;;4.22;1.63;;;;;;;21.86;59.84;100408.72;4877782;29;20049;-70
2023/08/09 08:53:56;;;;;;;4.40;1.85;;;;;;;21.87;59.66;100403.13;4878245;29;20061;-70
2023/08/09 08:56:25;;;;;;;4.32;1.85;;;;;;;21.89;59.93;100403.81;4878103;29;20049;-70
2023/08/09 08:58:54;;;;;;;2.92;1.70;;;;;;;21.89;59.64;100406.53;4877932;29;20056;-69
2023/08/09 09:01:25;;;;;;;4.28;1.63;;;;;;;21.90;59.87;100405.53;4876581;29;20499;-69
2023/08/09 09:03:54;;;;;;;3.53;1.83;;;;;;;21.92;59.72;100397.25;4877545;29;20048;-69
2023/08/09 09:06:23;;;;;;;2.67;1.60;;;;;;;21.93;59.78;100398.94;4877683;29;20057;-70
2023/08/09 09:08:55;;;;;;;3.90;1.70;;;;;;;21.95;59.73;100397.75;4877671;29;20099;-70
2023/08/09 09:11:24;;;;;;;3.40;1.50;;;;;;;21.96;59.70;100395.88;4877695;29;20053;-70
2023/08/09 09:13:53;;;;;;;5.38;1.70;;;;;;;21.97;59.76;100395.72;4877387;29;20511;-70
2023/08/09 09:16:22;;;;;;;4.03;2.10;;;;;;;21.97;59.84;100393.00;4877595;29;20055;-69
2023/08/09 09:18:52;;;;;;;4.43;1.70;;;;;;;21.98;59.58;100394.69;4877351;29;20582;-69
2023/08/09 09:21:20;;;;;;;4.10;1.67;;;;;;;22.00;59.76;100402.69;4877444;29;20411;-70
2023/08/09 09:23:50;;;;;;;3.42;1.60;;;;;;;22.00;59.44;100394.53;4877596;29;20416;-70
2023/08/09 09:26:18;;;;;;;3.55;1.80;;;;;;;22.01;59.74;100396.28;4877688;29;20055;-70
2023/08/09 09:28:47;;;;;;;3.53;1.80;;;;;;;22.02;59.48;100387.09;4877430;29;20121;-70
2023/08/09 09:31:18;;;;;;;4.80;1.50;;;;;;;22.02;59.67;100397.13;4877060;29;20053;-69
2023/08/09 09:33:49;;;;;;;2.63;1.50;;;;;;;22.03;59.63;100394.22;4877230;29;20056;-70
2023/08/09 09:36:19;;;;;;;5.68;1.50;;;;;;;22.04;59.50;100401.38;4876584;29;20057;-68
2023/08/09 09:38:53;;;;;;;4.40;1.60;;;;;;;22.06;59.42;100393.91;4877102;29;20045;-69
2023/08/09 09:41:21;;;;;;;4.20;1.45;;;;;;;22.07;59.39;100401.06;4876741;29;20147;-70
2023/08/09 09:43:51;;;;;;;4.05;1.50;;;;;;;22.09;59.47;100400.88;4877107;29;20060;-70
2023/08/09 09:46:20;;;;;;;4.65;1.80;;;;;;;22.08;59.01;100397.31;4877035;29;20088;-70
2023/08/09 09:49:06;;;;;;;3.10;1.75;;;;;;;22.10;58.99;100392.59;4876902;29;20439;-70
2023/08/09 09:51:36;;;;;;;3.70;1.65;;;;;;;22.11;59.14;100386.16;4876863;29;20064;-71
2023/08/09 09:54:06;;;;;;;4.35;1.58;;;;;;;22.13;59.11;100394.13;4876742;29;20461;-71
2023/08/09 09:56:35;;;;;;;3.72;1.70;;;;;;;22.12;58.94;100387.84;4877151;29;20057;-71
2023/08/09 09:59:04;;;;;;;2.83;1.42;;;;;;;22.14;59.18;100390.41;4877447;29;20399;-70
2023/08/09 10:01:41;;;;;;;2.70;1.70;;;;;;;22.17;59.15;100384.63;4877339;29;20412;-70
2023/08/09 10:04:12;;;;;;;3.33;1.38;;;;;;;22.16;58.90;100383.78;4877340;29;20197;-70
2023/08/09 10:06:43;;;;;;;3.63;1.42;;;;;;;22.19;59.34;100379.88;4876767;29;20049;-70
2023/08/09 10:09:13;;;;;;;2.88;1.60;;;;;;;22.19;59.18;100372.56;4876842;29;20052;-70
2023/08/09 10:11:45;;;;;;;3.63;1.70;;;;;;;22.20;59.15;100379.75;4876680;29;20080;-70
2023/08/09 10:14:16;;;;;;;2.78;1.60;;;;;;;22.21;58.91;100375.16;4876708;29;20059;-70
2023/08/09 10:16:47;;;;;;;3.30;1.52;;;;;;;22.24;59.03;100374.81;4876698;29;20057;-70
2023/08/09 10:19:22;;;;;;;2.42;1.42;;;;;;;22.26;58.76;100370.06;4876447;29;20409;-70
2023/08/09 10:21:53;;;;;;;2.72;1.50;;;;;;;22.26;58.87;100362.75;4876807;29;20056;-70
2023/08/09 10:24:24;;;;;;;3.40;1.63;;;;;;;22.27;58.74;100360.91;4876848;29;20436;-70
2023/08/09 10:26:54;;;;;;;2.67;1.35;;;;;;;22.29;58.77;100358.84;4876480;29;20057;-70
2023/08/09 10:29:25;;;;;;;3.97;1.50;;;;;;;22.29;58.64;100358.84;4876574;29;20068;-70
2023/08/09 10:31:59;;;;;;;3.05;1.50;;;;;;;22.29;58.51;100361.56;4876497;29;20053;-71
2023/08/09 10:34:35;;;;;;;2.88;1.50;;;;;;;22.31;58.54;100356.00;4876759;29;20053;-71
2023/08/09 10:37:06;;;;;;;3.17;1.65;;;;;;;22.31;58.78;100359.56;4876603;29;20049;-70
2023/08/09 10:39:35;;;;;;;3.80;1.55;;;;;;;22.32;58.56;100349.56;4876689;29;20045;-70
2023/08/09 10:42:06;;;;;;;3.03;1.42;;;;;;;22.32;58.40;100353.13;4876692;29;20048;-70
2023/08/09 10:44:38;;;;;;;3.13;1.65;;;;;;;22.33;58.72;100352.09;4877013;29;20243;-70
2023/08/09 10:47:09;;;;;;;2.90;1.42;;;;;;;22.34;58.74;100356.50;4877093;29;20049;-71
2023/08/09 10:50:06;;;;;;;2.10;1.30;;;;;;;22.36;58.25;100349.03;4876792;29;20056;-70
2023/08/09 10:52:38;;;;;;;2.38;1.20;;;;;;;22.35;58.28;100354.66;4868266;29;20068;-70
2023/08/09 10:55:37;;;;;;;3.05;1.52;;;;;;;22.37;58.59;100349.88;4877681;29;20140;-70
2023/08/09 10:58:05;;;;;;;3.53;1.38;;;;;;;22.38;58.44;100362.44;4880162;29;20045;-70
2023/08/09 11:00:41;;;;;;;3.17;1.42;;;;;;;22.39;58.37;100361.44;4880388;29;20075;-71
2023/08/09 11:03:11;;;;;;;2.72;1.50;;;;;;;22.39;58.19;100362.31;4877521;29;20563;-70
2023/08/09 11:05:44;;;;;;;2.92;1.50;;;;;;;22.40;58.28;100352.28;4876576;29;20076;-68
2023/08/09 11:08:19;;;;;;;1.70;1.20;;;;;;;22.42;58.10;100355.69;4876157;29;20133;-70
2023/08/09 11:10:49;;;;;;;2.60;1.50;;;;;;;22.41;58.16;100349.41;4876286;29;20059;-71
2023/08/09 11:13:19;;;;;;;1.80;1.25;;;;;;;22.43;58.18;100355.50;4876090;29;20053;-70
2023/08/09 11:15:50;;;;;;;2.47;1.10;;;;;;;22.46;58.17;100359.75;4874545;29;20057;-70
2023/08/09 11:18:19;;;;;;;2.03;1.10;;;;;;;22.46;58.24;100357.03;4876133;29;20495;-70
2023/08/09 11:20:47;;;;;;;2.95;1.50;;;;;;;22.47;58.35;100353.31;4875707;29;20045;-71
2023/08/09 11:23:16;;;;;;;2.10;1.17;;;;;;;22.47;58.25;100346.00;4876497;29;20045;-71
2023/08/09 11:25:45;;;;;;;2.60;1.42;;;;;;;22.48;58.00;100335.97;4879796;29;20056;-71
2023/08/09 11:28:14;;;;;;;2.85;1.33;;;;;;;22.49;58.10;100340.44;4879365;29;20049;-71
2023/08/09 11:30:43;;;;;;;2.63;1.55;;;;;;;22.50;58.09;100337.53;4879495;29;20105;-70
2023/08/09 11:33:12;;;;;;;2.17;1.40;;;;;;;22.50;58.09;100336.69;4879553;29;20049;-71
2023/08/09 11:35:43;;;;;;;2.38;1.40;;;;;;;22.51;58.21;100339.22;4879580;29;20053;-70